createdAt,value
2019-04-10T00:06:15.144Z,11206.9
2019-04-10T00:16:11.864Z,11206.9
2019-04-10T00:26:10.923Z,11207
2019-04-10T00:36:10.216Z,11207
2019-04-10T00:46:10.253Z,11207.1
2019-04-10T00:56:08.795Z,11207.1
2019-04-10T01:06:08.125Z,11207.2
2019-04-10T01:16:07.241Z,11207.2
2019-04-10T01:26:07.205Z,11207.3
2019-04-10T01:36:06.825Z,11207.3
2019-04-10T01:46:04.855Z,11207.4
2019-04-10T01:56:05.189Z,11207.5
2019-04-10T02:06:03.285Z,11207.5
2019-04-10T02:16:02.761Z,11207.6
2019-04-10T02:26:01.715Z,11207.6
2019-04-10T02:36:01.332Z,11207.7
2019-04-10T02:46:01.643Z,11207.7
2019-04-10T02:56:00.357Z,11207.8
2019-04-10T03:05:58.755Z,11207.8
2019-04-10T03:15:57.960Z,11207.9
2019-04-10T03:25:57.326Z,11207.9
2019-04-10T03:35:56.990Z,11208
2019-04-10T03:45:55.400Z,11208
2019-04-10T03:55:54.618Z,11208.1
2019-04-10T04:05:53.834Z,11208.2
2019-04-10T04:15:53.044Z,11208.3
2019-04-10T04:25:52.258Z,11208.4
2019-04-10T04:35:51.465Z,11208.4
2019-04-10T04:45:51.575Z,11208.5
2019-04-10T04:55:49.899Z,11208.6
2019-04-10T05:05:49.935Z,11208.7
2019-04-10T05:15:49.197Z,11208.7
2019-04-10T05:25:47.684Z,11208.8
2019-04-10T05:35:46.747Z,11208.8
2019-04-10T05:45:46.462Z,11208.9
2019-04-10T05:55:45.270Z,11208.9
2019-04-10T06:05:44.535Z,11209
2019-04-10T06:15:43.594Z,11209
2019-04-10T06:25:43.450Z,11209.1
2019-04-10T06:35:42.013Z,11209.2
2019-04-10T06:45:41.960Z,11209.2
2019-04-10T06:55:40.547Z,11209.3
2019-04-10T07:05:47.201Z,11209.3
2019-04-10T07:15:41.209Z,11209.4
2019-04-10T07:25:40.236Z,11209.4
2019-04-10T07:35:38.285Z,11209.5
2019-04-10T07:45:36.491Z,11209.6
2019-04-10T07:55:35.701Z,11209.6
2019-04-10T08:05:35.380Z,11209.7
2019-04-10T08:15:34.132Z,11209.8
2019-04-10T08:25:33.334Z,11209.8
2019-04-10T08:35:33.523Z,11209.9
2019-04-10T08:45:39.059Z,11209.9
2019-04-10T08:55:30.967Z,11209.9
2019-04-10T09:05:30.193Z,11210
2019-04-10T09:15:29.920Z,11210
2019-04-10T09:25:28.610Z,11210.1
2019-04-10T09:35:28.743Z,11210.1
2019-04-10T09:45:27.032Z,11210.2
2019-04-10T09:55:26.237Z,11210.2
2019-04-10T10:05:26.453Z,11210.3
2019-04-10T10:15:25.241Z,11210.3
2019-04-10T10:25:23.882Z,11210.3
2019-04-10T10:35:23.200Z,11210.4
2019-04-10T10:45:22.843Z,11210.4
2019-04-10T10:55:21.515Z,11210.4
2019-04-10T11:05:21.115Z,11210.5
2019-04-10T11:16:24.753Z,11210.5
2019-04-10T11:26:24.144Z,11210.5
2019-04-10T11:37:34.925Z,11210.6
2019-04-10T11:48:34.092Z,11210.6
2019-04-10T11:58:33.393Z,11210.6
2019-04-10T12:08:54.650Z,11210.7
2019-04-10T12:18:59.158Z,11210.7
2019-04-10T12:28:58.183Z,11210.7
2019-04-10T12:38:56.636Z,11210.8
2019-04-10T12:48:55.867Z,11210.8
2019-04-10T12:58:55.172Z,11210.9
2019-04-10T13:21:49.410Z,11210.9
2019-04-10T13:31:48.806Z,11210.9
2019-04-10T13:41:48.389Z,11211
2019-04-10T13:51:47.680Z,11211
2019-04-10T14:01:46.243Z,11211.1
2019-04-10T14:10:39.884Z,11210.9
2019-04-10T14:20:37.557Z,11210.9
2019-04-10T14:30:36.039Z,11211
2019-04-10T14:40:35.948Z,11211
2019-04-10T14:50:34.451Z,11211.1
2019-04-10T15:00:34.821Z,11211.1
2019-04-10T15:10:32.932Z,11211.2
2019-04-10T15:20:33.387Z,11211.2
2019-04-10T15:30:32.750Z,11211.3
2019-04-10T15:40:30.830Z,11211.3
2019-04-10T15:50:30.479Z,11211.4
2019-04-10T16:00:29.491Z,11211.4
2019-04-10T16:10:28.922Z,11211.4
2019-04-10T16:20:27.835Z,11211.5
2019-04-10T16:30:27.236Z,11211.5
2019-04-10T16:40:26.922Z,11211.6
2019-04-10T16:53:15.989Z,11211.4
2019-04-10T17:03:15.503Z,11211.5
2019-04-10T17:13:14.124Z,11211.5
2019-04-10T17:23:12.815Z,11211.6
2019-04-10T17:33:13.086Z,11211.6
2019-04-10T17:43:12.694Z,11211.7
2019-04-10T17:53:11.451Z,11211.7
2019-04-10T18:03:10.923Z,11211.8
2019-04-10T18:13:09.129Z,11211.8
2019-04-10T18:23:09.302Z,11211.9
2019-04-10T18:33:07.736Z,11211.9
2019-04-10T18:43:07.669Z,11211.9
2019-04-10T18:53:06.255Z,11212
2019-04-10T19:03:05.508Z,11212
2019-04-10T19:14:09.958Z,11212.1
2019-04-10T19:24:09.781Z,11212.1
2019-04-10T19:34:09.362Z,11212.2
2019-04-10T19:44:07.540Z,11212.3
2019-04-10T19:54:07.759Z,11212.3
2019-04-10T20:04:06.134Z,11212.4
2019-04-10T20:14:06.217Z,11212.4
2019-04-10T20:24:04.795Z,11212.5
2019-04-10T20:34:03.598Z,11212.5
2019-04-10T20:44:03.711Z,11212.6
2019-04-10T20:54:02.030Z,11212.6
2019-04-10T21:04:01.240Z,11212.7
2019-04-10T21:14:00.454Z,11212.7
2019-04-10T21:24:00.675Z,11212.8
2019-04-10T21:33:59.031Z,11212.8
2019-04-10T21:43:58.087Z,11212.9
2019-04-10T21:53:57.914Z,11213
2019-04-10T22:03:56.513Z,11213.1
2019-04-10T22:13:56.819Z,11213.1
2019-04-10T22:23:54.931Z,11213.2
2019-04-10T22:33:54.430Z,11213.2
2019-04-10T22:43:53.362Z,11213.2
2019-04-10T22:53:53.478Z,11213.3
2019-04-10T23:03:52.746Z,11213.3
2019-04-10T23:13:51.109Z,11213.4
2019-04-10T23:23:50.206Z,11213.4
2019-04-10T23:33:50.330Z,11213.5
2019-04-10T23:43:48.622Z,11213.6
2019-04-10T23:53:48.908Z,11213.7
